createdAt,value
2023-05-02T00:00:04.539Z,82.96
2023-05-02T00:01:04.337Z,83.06
2023-05-02T00:02:04.397Z,82.41
2023-05-02T00:03:04.364Z,82.24
2023-05-02T00:04:04.379Z,82.82
2023-05-02T00:05:04.424Z,82.41
2023-05-02T00:06:04.296Z,82.51
2023-05-02T00:07:04.298Z,82.07
2023-05-02T00:08:04.267Z,81.90
2023-05-02T00:09:04.264Z,80.98
2023-05-02T00:10:04.316Z,80.78
2023-05-02T00:11:04.258Z,80.43
2023-05-02T00:12:04.273Z,80.57
2023-05-02T00:13:04.232Z,80.13
2023-05-02T00:14:04.216Z,80.43
2023-05-02T00:15:04.246Z,80.74
2023-05-02T00:16:04.215Z,80.13
2023-05-02T00:17:04.306Z,79.11
2023-05-02T00:18:04.235Z,79.32
2023-05-02T00:19:04.267Z,79.93
2023-05-02T00:20:04.234Z,80.16
2023-05-02T00:21:04.200Z,81.02
2023-05-02T00:22:04.190Z,83.20
2023-05-02T00:23:04.151Z,83.20
2023-05-02T00:24:04.149Z,83.34
2023-05-02T00:25:04.141Z,84.20
2023-05-02T00:26:04.174Z,85.88
2023-05-02T00:27:04.112Z,86.22
2023-05-02T00:28:04.121Z,86.49
2023-05-02T00:29:04.104Z,85.94
2023-05-02T00:30:04.109Z,85.02
2023-05-02T00:31:04.181Z,85.67
2023-05-02T00:32:04.139Z,85.22
2023-05-02T00:33:04.134Z,85.67
2023-05-02T00:34:04.071Z,85.94
2023-05-02T00:35:04.078Z,85.22
2023-05-02T00:36:04.094Z,85.26
2023-05-02T00:37:04.071Z,85.22
2023-05-02T00:38:04.044Z,85.12
2023-05-02T00:39:04.045Z,85.08
2023-05-02T00:40:04.040Z,84.88
2023-05-02T00:41:04.014Z,84.12
2023-05-02T00:42:04.058Z,83.51
2023-05-02T00:43:04.045Z,83.00
2023-05-02T00:44:04.012Z,82.86
2023-05-02T00:45:03.996Z,82.75
2023-05-02T00:46:04.005Z,82.24
2023-05-02T00:47:03.987Z,81.98
2023-05-02T00:48:04.055Z,83.75
2023-05-02T00:49:03.965Z,84.47
2023-05-02T00:50:03.954Z,84.67
2023-05-02T00:51:03.947Z,84.30
2023-05-02T00:52:04.001Z,84.36
2023-05-02T00:53:03.928Z,84.36
2023-05-02T00:54:03.961Z,84.16
2023-05-02T00:55:03.923Z,83.61
2023-05-02T00:56:03.912Z,83.26
2023-05-02T00:57:03.903Z,83.10
2023-05-02T00:58:03.944Z,84.06
2023-05-02T00:59:03.943Z,84.91
2023-05-02T01:00:04.077Z,85.47
2023-05-02T01:01:03.893Z,85.22
2023-05-02T01:02:04.055Z,85.32
2023-05-02T01:03:04.041Z,85.02
2023-05-02T01:04:04.170Z,84.57
2023-05-02T01:05:03.850Z,84.36
2023-05-02T01:06:03.918Z,84.01
2023-05-02T01:07:03.822Z,83.40
2023-05-02T01:08:03.821Z,82.89
2023-05-02T01:09:03.838Z,82.55
2023-05-02T01:10:03.796Z,82.96
2023-05-02T01:11:03.833Z,82.71
2023-05-02T01:12:03.795Z,82.61
2023-05-02T01:13:03.809Z,82.31
2023-05-02T01:14:03.799Z,82.41
2023-05-02T01:15:03.773Z,81.49
2023-05-02T01:16:03.842Z,81.59
2023-05-02T01:17:03.754Z,81.39
2023-05-02T01:18:03.817Z,81.39
2023-05-02T01:19:03.916Z,81.59
2023-05-02T01:20:03.804Z,81.90
2023-05-02T01:21:03.762Z,81.09
2023-05-02T01:22:03.717Z,82.49
2023-05-02T01:23:03.702Z,84.16
2023-05-02T01:24:03.683Z,84.98
2023-05-02T01:25:03.716Z,84.57
2023-05-02T01:26:03.725Z,84.12
2023-05-02T01:27:03.687Z,84.53
2023-05-02T01:28:03.678Z,83.81
2023-05-02T01:29:03.678Z,83.92
2023-05-02T01:30:03.654Z,83.87
2023-05-02T01:31:03.680Z,83.47
2023-05-02T01:32:03.758Z,82.96
2023-05-02T01:33:03.671Z,82.96
2023-05-02T01:34:03.667Z,82.51
2023-05-02T01:35:03.660Z,82.10
2023-05-02T01:36:03.660Z,81.49
2023-05-02T01:37:03.644Z,81.18
2023-05-02T01:38:03.606Z,81.90
2023-05-02T01:39:03.596Z,81.39
2023-05-02T01:40:03.597Z,81.59
2023-05-02T01:41:03.599Z,80.98
2023-05-02T01:42:03.603Z,80.98
2023-05-02T01:43:03.568Z,80.98
2023-05-02T01:44:03.580Z,80.98
2023-05-02T01:45:03.567Z,80.47
2023-05-02T01:46:03.561Z,80.64
2023-05-02T01:47:03.713Z,80.33
2023-05-02T01:48:03.584Z,79.32
2023-05-02T01:49:03.537Z,79.35
2023-05-02T01:50:03.512Z,79.82
2023-05-02T01:51:03.551Z,79.62
2023-05-02T01:52:03.558Z,80.02
2023-05-02T01:53:03.534Z,79.72
2023-05-02T01:54:03.538Z,79.00
2023-05-02T01:55:03.516Z,79.21
2023-05-02T01:56:03.488Z,79.32
2023-05-02T01:57:03.492Z,79.41
2023-05-02T01:58:03.484Z,79.32
2023-05-02T01:59:03.520Z,79.72
2023-05-02T02:00:04.044Z,80.02
2023-05-02T02:01:04.992Z,79.11
2023-05-02T02:02:03.482Z,78.70
2023-05-02T02:03:03.480Z,79.32
2023-05-02T02:04:03.545Z,79.11
2023-05-02T02:05:03.421Z,79.11
2023-05-02T02:06:03.486Z,79.79
2023-05-02T02:07:03.464Z,80.74
2023-05-02T02:08:03.434Z,80.13
2023-05-02T02:09:03.407Z,80.43
2023-05-02T02:10:03.450Z,80.33
2023-05-02T02:11:03.385Z,81.18
2023-05-02T02:12:03.420Z,80.88
2023-05-02T02:13:03.429Z,81.49
2023-05-02T02:14:03.388Z,81.49
2023-05-02T02:15:03.351Z,82.31
2023-05-02T02:16:03.321Z,81.53
2023-05-02T02:17:03.494Z,81.32
2023-05-02T02:18:03.345Z,81.73
2023-05-02T02:19:03.347Z,82.04
2023-05-02T02:20:03.315Z,82.00
2023-05-02T02:21:03.305Z,81.70
2023-05-02T02:22:03.330Z,81.59
2023-05-02T02:23:03.330Z,82.45
2023-05-02T02:24:03.285Z,82.41
2023-05-02T02:25:03.280Z,81.39
2023-05-02T02:26:03.319Z,81.90
2023-05-02T02:27:03.264Z,81.49
2023-05-02T02:28:03.284Z,81.18
2023-05-02T02:29:03.270Z,81.39
2023-05-02T02:30:03.348Z,81.49
2023-05-02T02:31:03.322Z,81.39
2023-05-02T02:32:03.240Z,81.70
2023-05-02T02:33:03.307Z,81.49
2023-05-02T02:34:03.251Z,80.84
2023-05-02T02:35:03.225Z,80.64
2023-05-02T02:36:03.243Z,80.94
2023-05-02T02:37:03.213Z,80.94
2023-05-02T02:38:03.209Z,81.04
2023-05-02T02:39:03.178Z,82.10
2023-05-02T02:40:03.335Z,82.51
2023-05-02T02:41:03.201Z,82.10
2023-05-02T02:42:03.158Z,82.31
2023-05-02T02:43:03.217Z,83.87
2023-05-02T02:44:03.155Z,84.94
2023-05-02T02:45:03.155Z,84.98
2023-05-02T02:46:03.202Z,84.88
2023-05-02T02:47:03.145Z,84.94
2023-05-02T02:48:03.163Z,84.94
2023-05-02T02:49:03.151Z,84.63
2023-05-02T02:50:03.114Z,84.49
2023-05-02T02:51:03.126Z,84.28
2023-05-02T02:52:03.147Z,84.14
2023-05-02T02:53:03.109Z,84.45
2023-05-02T02:54:05.925Z,83.84
2023-05-02T02:55:05.076Z,83.53
2023-05-02T02:56:03.062Z,83.23
2023-05-02T02:57:03.052Z,82.21
2023-05-02T02:58:03.137Z,81.86
2023-05-02T02:59:03.069Z,82.47
2023-05-02T03:00:03.177Z,83.23
2023-05-02T03:01:03.020Z,83.84
2023-05-02T03:02:03.195Z,84.28
2023-05-02T03:03:03.084Z,84.18
2023-05-02T03:04:03.057Z,84.83
2023-05-02T03:05:03.070Z,85.04
2023-05-02T03:06:03.084Z,84.83
2023-05-02T03:07:02.991Z,84.59
2023-05-02T03:08:02.982Z,84.08
2023-05-02T03:09:02.982Z,83.73
2023-05-02T03:10:03.230Z,83.33
2023-05-02T03:11:02.995Z,83.87
2023-05-02T03:12:02.958Z,83.78
2023-05-02T03:13:02.997Z,83.98
2023-05-02T03:14:02.939Z,84.28
2023-05-02T03:15:03.006Z,83.78
2023-05-02T03:16:03.113Z,84.01
2023-05-02T03:17:02.965Z,84.98
2023-05-02T03:18:02.965Z,85.59
2023-05-02T03:19:02.922Z,86.00
2023-05-02T03:20:02.928Z,85.28
2023-05-02T03:21:02.937Z,85.08
2023-05-02T03:22:02.899Z,85.18
2023-05-02T03:23:02.941Z,86.30
2023-05-02T03:24:02.900Z,86.76
2023-05-02T03:25:02.888Z,86.76
2023-05-02T03:26:02.920Z,87.37
2023-05-02T03:27:02.859Z,87.37
2023-05-02T03:28:02.923Z,87.47
2023-05-02T03:29:02.871Z,87.20
2023-05-02T03:30:02.963Z,87.16
2023-05-02T03:31:02.916Z,87.12
2023-05-02T03:32:03.034Z,86.41
2023-05-02T03:33:02.902Z,86.30
2023-05-02T03:34:02.805Z,85.18
2023-05-02T03:35:02.818Z,85.18
2023-05-02T03:36:02.808Z,85.28
2023-05-02T03:37:02.841Z,84.98
2023-05-02T03:38:02.828Z,85.18
2023-05-02T03:39:02.791Z,85.24
2023-05-02T03:40:02.936Z,84.53
2023-05-02T03:41:02.781Z,84.01
2023-05-02T03:42:02.790Z,83.81
2023-05-02T03:43:02.780Z,83.26
2023-05-02T03:44:03.759Z,82.86
2023-05-02T03:45:02.733Z,82.55
2023-05-02T03:46:02.790Z,82.45
2023-05-02T03:47:02.773Z,82.14
2023-05-02T03:48:02.816Z,82.55
2023-05-02T03:49:02.763Z,82.10
2023-05-02T03:50:02.877Z,81.94
2023-05-02T03:51:02.710Z,81.39
2023-05-02T03:52:02.702Z,81.49
2023-05-02T03:53:02.715Z,81.09
2023-05-02T03:54:02.765Z,80.74
2023-05-02T03:55:02.676Z,81.09
2023-05-02T03:56:03.700Z,81.39
2023-05-02T03:57:02.665Z,81.49
2023-05-02T03:58:02.785Z,81.80
2023-05-02T03:59:02.713Z,81.90
2023-05-02T04:00:02.801Z,81.80
2023-05-02T04:01:02.691Z,81.39
2023-05-02T04:02:02.730Z,81.18
2023-05-02T04:03:02.676Z,81.80
2023-05-02T04:04:02.678Z,81.80
2023-05-02T04:05:02.683Z,81.09
2023-05-02T04:06:02.656Z,80.98
2023-05-02T04:07:02.627Z,81.18
2023-05-02T04:08:02.593Z,81.09
2023-05-02T04:09:02.621Z,80.57
2023-05-02T04:10:02.814Z,80.68
2023-05-02T04:11:02.614Z,81.04
2023-05-02T04:12:02.592Z,80.94
2023-05-02T04:13:02.584Z,81.04
2023-05-02T04:14:02.549Z,80.64
2023-05-02T04:15:02.537Z,80.50
2023-05-02T04:16:02.548Z,80.74
2023-05-02T04:17:02.624Z,80.29
2023-05-02T04:18:02.563Z,80.50
2023-05-02T04:19:02.541Z,79.89
2023-05-02T04:20:04.843Z,79.68
2023-05-02T04:21:03.568Z,80.19
2023-05-02T04:22:02.524Z,79.99
2023-05-02T04:23:02.505Z,80.09
2023-05-02T04:24:02.516Z,79.99
2023-05-02T04:25:02.525Z,79.99
2023-05-02T04:26:02.535Z,80.05
2023-05-02T04:27:02.504Z,79.75
2023-05-02T04:28:02.484Z,79.89
2023-05-02T04:29:02.458Z,80.05
2023-05-02T04:30:02.692Z,80.05
2023-05-02T04:31:02.599Z,79.79
2023-05-02T04:32:02.480Z,80.36
2023-05-02T04:33:02.546Z,80.50
2023-05-02T04:34:02.442Z,80.26
2023-05-02T04:35:02.486Z,80.26
2023-05-02T04:36:02.414Z,80.77
2023-05-02T04:37:02.418Z,80.26
2023-05-02T04:38:02.433Z,79.85
2023-05-02T04:39:02.401Z,79.95
2023-05-02T04:40:02.488Z,80.77
2023-05-02T04:41:09.162Z,80.60
2023-05-02T04:42:03.411Z,81.45
2023-05-02T04:43:02.425Z,82.41
2023-05-02T04:44:02.403Z,83.73
2023-05-02T04:45:02.369Z,84.53
2023-05-02T04:46:02.415Z,84.22
2023-05-02T04:47:02.397Z,84.67
2023-05-02T04:48:02.474Z,85.18
2023-05-02T04:49:02.321Z,84.88
2023-05-02T04:50:02.561Z,84.63
2023-05-02T04:51:02.343Z,84.74
2023-05-02T04:52:02.372Z,85.04
2023-05-02T04:53:02.307Z,85.28
2023-05-02T04:54:02.321Z,85.14
2023-05-02T04:55:02.315Z,84.94
2023-05-02T04:56:02.461Z,85.14
2023-05-02T04:57:02.298Z,85.04
2023-05-02T04:58:02.268Z,84.90
2023-05-02T04:59:02.300Z,85.24
2023-05-02T05:00:02.520Z,85.00
2023-05-02T05:01:02.266Z,84.69
2023-05-02T05:02:02.417Z,84.59
2023-05-02T05:03:02.368Z,84.49
2023-05-02T05:04:02.299Z,84.28
2023-05-02T05:05:02.280Z,84.28
2023-05-02T05:06:02.222Z,84.14
2023-05-02T05:07:02.315Z,84.04
2023-05-02T05:08:02.206Z,83.02
2023-05-02T05:09:02.221Z,83.02
2023-05-02T05:10:02.530Z,83.87
2023-05-02T05:11:02.177Z,84.90
2023-05-02T05:12:02.194Z,85.16
2023-05-02T05:13:02.162Z,85.16
2023-05-02T05:14:02.158Z,85.33
2023-05-02T05:15:02.243Z,84.92
2023-05-02T05:16:02.269Z,84.00
2023-05-02T05:17:02.123Z,83.80
2023-05-02T05:18:02.218Z,84.58
2023-05-02T05:19:02.129Z,83.76
2023-05-02T05:20:02.533Z,83.25
2023-05-02T05:21:02.108Z,83.15
2023-05-02T05:22:02.117Z,82.29
2023-05-02T05:23:02.081Z,82.54
2023-05-02T05:24:02.111Z,83.65
2023-05-02T05:25:02.094Z,83.04
2023-05-02T05:26:02.084Z,82.84
2023-05-02T05:27:02.079Z,83.15
2023-05-02T05:28:02.044Z,82.64
2023-05-02T05:29:02.077Z,82.80
2023-05-02T05:30:02.323Z,82.29
2023-05-02T05:31:02.053Z,82.19
2023-05-02T05:32:02.109Z,81.44
2023-05-02T05:33:02.143Z,80.77
2023-05-02T05:34:02.061Z,80.77
2023-05-02T05:35:02.051Z,80.63
2023-05-02T05:36:01.997Z,80.73
2023-05-02T05:37:02.000Z,81.68
2023-05-02T05:38:02.022Z,82.29
2023-05-02T05:39:02.006Z,82.84
2023-05-02T05:40:02.476Z,83.15
2023-05-02T05:41:01.975Z,83.56
2023-05-02T05:42:02.014Z,83.35
2023-05-02T05:43:01.966Z,83.25
2023-05-02T05:44:01.983Z,83.49
2023-05-02T05:45:02.055Z,83.70
2023-05-02T05:46:01.985Z,83.70
2023-05-02T05:47:01.938Z,83.59
2023-05-02T05:48:02.086Z,84.25
2023-05-02T05:49:01.966Z,83.94
2023-05-02T05:50:02.271Z,84.72
2023-05-02T05:51:01.976Z,84.72
2023-05-02T05:52:01.957Z,84.11
2023-05-02T05:53:01.960Z,83.80
2023-05-02T05:54:01.907Z,83.25
2023-05-02T05:55:02.054Z,82.74
2023-05-02T05:56:01.870Z,82.74
2023-05-02T05:57:01.906Z,82.70
2023-05-02T05:58:01.897Z,82.29
2023-05-02T05:59:01.902Z,81.27
2023-05-02T06:00:02.217Z,81.27
2023-05-02T06:01:01.934Z,81.27
2023-05-02T06:02:01.870Z,81.17
2023-05-02T06:03:02.161Z,81.38
2023-05-02T06:04:01.890Z,82.29
2023-05-02T06:05:01.998Z,83.15
2023-05-02T06:06:01.892Z,83.59
2023-05-02T06:07:01.836Z,84.04
2023-05-02T06:08:01.795Z,84.72
2023-05-02T06:09:01.793Z,83.96
2023-05-02T06:10:02.097Z,83.80
2023-05-02T06:11:01.761Z,83.70
2023-05-02T06:12:01.803Z,84.31
2023-05-02T06:13:01.749Z,84.72
2023-05-02T06:14:01.747Z,84.41
2023-05-02T06:15:01.778Z,83.73
2023-05-02T06:16:01.749Z,83.63
2023-05-02T06:17:01.722Z,84.34
2023-05-02T06:18:01.775Z,83.94
2023-05-02T06:19:01.763Z,84.96
2023-05-02T06:20:02.000Z,82.78
2023-05-02T06:21:01.710Z,80.68
2023-05-02T06:22:02.689Z,79.04
2023-05-02T06:23:01.684Z,79.25
2023-05-02T06:24:01.692Z,80.07
2023-05-02T06:25:01.664Z,80.37
2023-05-02T06:26:01.655Z,79.82
2023-05-02T06:27:01.655Z,80.07
2023-05-02T06:28:01.701Z,80.37
2023-05-02T06:29:01.647Z,80.84
2023-05-02T06:30:02.966Z,80.02
2023-05-02T06:31:01.760Z,79.11
2023-05-02T06:32:01.711Z,78.80
2023-05-02T06:33:01.689Z,78.46
2023-05-02T06:34:01.617Z,78.87
2023-05-02T06:35:01.584Z,80.02
2023-05-02T06:36:02.162Z,78.97
2023-05-02T06:37:02.565Z,78.26
2023-05-02T06:38:01.632Z,77.07
2023-05-02T06:39:01.598Z,77.64
2023-05-02T06:40:01.892Z,78.42
2023-05-02T06:41:01.569Z,77.10
2023-05-02T06:42:01.550Z,77.91
2023-05-02T06:43:01.633Z,77.06
2023-05-02T06:44:01.544Z,77.26
2023-05-02T06:45:01.544Z,75.81
2023-05-02T06:46:01.533Z,75.40
2023-05-02T06:47:01.641Z,75.40
2023-05-02T06:48:01.543Z,75.40
2023-05-02T06:49:01.542Z,75.16
2023-05-02T06:50:01.718Z,75.16
2023-05-02T06:51:01.500Z,74.85
2023-05-02T06:52:01.479Z,74.96
2023-05-02T06:53:01.499Z,74.85
2023-05-02T06:54:01.489Z,75.06
2023-05-02T06:55:01.475Z,74.55
2023-05-02T06:56:01.485Z,73.84
2023-05-02T06:57:01.468Z,74.65
2023-05-02T06:58:01.419Z,75.50
2023-05-02T06:59:01.429Z,75.54
2023-05-02T07:00:02.005Z,76.56
2023-05-02T07:01:01.509Z,76.96
2023-05-02T07:02:02.947Z,76.82
2023-05-02T07:03:01.463Z,77.17
2023-05-02T07:04:01.460Z,76.65
2023-05-02T07:05:01.392Z,76.76
2023-05-02T07:06:01.444Z,78.49
2023-05-02T07:07:01.461Z,76.45
2023-05-02T07:08:01.360Z,74.82
2023-05-02T07:09:01.407Z,74.62
2023-05-02T07:10:01.632Z,74.82
2023-05-02T07:11:01.421Z,75.23
2023-05-02T07:12:01.340Z,75.74
2023-05-02T07:13:01.351Z,76.76
2023-05-02T07:14:01.326Z,76.96
2023-05-02T07:15:01.359Z,76.62
2023-05-02T07:16:01.373Z,76.79
2023-05-02T07:17:01.351Z,74.76
2023-05-02T07:18:01.329Z,74.52
2023-05-02T07:19:01.283Z,73.80
2023-05-02T07:20:01.433Z,74.41
2023-05-02T07:21:01.304Z,74.82
2023-05-02T07:22:01.318Z,74.82
2023-05-02T07:23:01.268Z,72.58
2023-05-02T07:24:01.233Z,74.82
2023-05-02T07:25:02.328Z,75.02
2023-05-02T07:26:01.221Z,74.96
2023-05-02T07:27:01.223Z,75.57
2023-05-02T07:28:01.197Z,74.76
2023-05-02T07:29:01.285Z,74.65
2023-05-02T07:30:01.642Z,74.45
2023-05-02T07:31:01.190Z,74.35
2023-05-02T07:32:01.306Z,74.48
2023-05-02T07:33:01.206Z,76.59
2023-05-02T07:34:01.238Z,76.42
2023-05-02T07:35:01.166Z,75.91
2023-05-02T07:36:01.169Z,75.30
2023-05-02T07:37:01.183Z,76.42
2023-05-02T07:38:01.125Z,76.72
2023-05-02T07:39:01.103Z,76.68
2023-05-02T07:40:01.492Z,75.26
2023-05-02T07:41:01.140Z,74.85
2023-05-02T07:42:01.157Z,75.26
2023-05-02T07:43:01.085Z,75.87
2023-05-02T07:44:01.087Z,75.12
2023-05-02T07:45:01.188Z,74.92
2023-05-02T07:46:01.096Z,75.12
2023-05-02T07:47:01.115Z,74.72
2023-05-02T07:48:01.094Z,73.80
2023-05-02T07:49:01.051Z,73.36
2023-05-02T07:50:01.331Z,74.18
2023-05-02T07:51:01.084Z,72.75
2023-05-02T07:52:01.123Z,74.88
2023-05-02T07:53:01.043Z,73.97
2023-05-02T07:54:01.025Z,72.92
2023-05-02T07:55:01.042Z,72.62
2023-05-02T07:56:01.028Z,72.41
2023-05-02T07:57:00.973Z,72.41
2023-05-02T07:58:01.085Z,71.09
2023-05-02T07:59:00.964Z,70.76
2023-05-02T08:00:01.294Z,72.11
2023-05-02T08:01:00.948Z,72.01
2023-05-02T08:02:00.975Z,72.01
2023-05-02T08:03:01.108Z,71.50
2023-05-02T08:04:01.103Z,72.25
2023-05-02T08:05:00.938Z,72.41
2023-05-02T08:06:01.998Z,74.04
2023-05-02T08:07:00.911Z,72.72
2023-05-02T08:08:00.954Z,71.60
2023-05-02T08:09:00.905Z,72.92
2023-05-02T08:10:01.064Z,72.52
2023-05-02T08:11:00.885Z,71.67
2023-05-02T08:12:00.916Z,71.77
2023-05-02T08:13:00.900Z,72.48
2023-05-02T08:14:00.966Z,70.32
2023-05-02T08:15:00.888Z,69.13
2023-05-02T08:16:00.915Z,70.76
2023-05-02T08:17:00.829Z,69.54
2023-05-02T08:18:00.846Z,69.95
2023-05-02T08:19:00.812Z,70.21
2023-05-02T08:20:02.289Z,69.84
2023-05-02T08:21:00.815Z,70.01
2023-05-02T08:22:00.846Z,71.53
2023-05-02T08:23:00.800Z,72.38
2023-05-02T08:24:00.802Z,72.69
2023-05-02T08:25:00.793Z,73.94
2023-05-02T08:26:00.785Z,74.71
2023-05-02T08:27:00.751Z,72.31
2023-05-02T08:28:00.733Z,73.74
2023-05-02T08:29:00.734Z,72.62
2023-05-02T08:30:01.418Z,73.02
2023-05-02T08:31:01.770Z,73.09
2023-05-02T08:32:00.775Z,74.51
2023-05-02T08:33:00.816Z,74.14
2023-05-02T08:34:00.710Z,73.74
2023-05-02T08:35:00.711Z,71.60
2023-05-02T08:36:00.715Z,71.06
2023-05-02T08:37:00.766Z,71.40
2023-05-02T08:38:00.685Z,71.47
2023-05-02T08:39:00.678Z,71.97
2023-05-02T08:40:00.891Z,72.28
2023-05-02T08:41:00.717Z,72.04
2023-05-02T08:42:00.661Z,71.13
2023-05-02T08:43:00.653Z,70.83
2023-05-02T08:44:00.651Z,69.98
2023-05-02T08:45:00.633Z,71.09
2023-05-02T08:46:00.640Z,69.78
2023-05-02T08:47:00.710Z,70.28
2023-05-02T08:48:00.692Z,69.84
2023-05-02T08:49:00.591Z,69.84
2023-05-02T08:50:00.788Z,68.96
2023-05-02T08:51:00.576Z,69.91
2023-05-02T08:52:00.622Z,71.73
2023-05-02T08:53:00.562Z,71.33
2023-05-02T08:54:00.550Z,70.72
2023-05-02T08:55:00.840Z,71.88
2023-05-02T08:56:00.544Z,72.28
2023-05-02T08:57:00.579Z,72.38
2023-05-02T08:58:00.519Z,73.97
2023-05-02T08:59:00.540Z,72.14
2023-05-02T09:00:00.537Z,72.14
2023-05-02T09:01:00.513Z,72.25
2023-05-02T09:02:00.524Z,73.66
2023-05-02T09:03:00.493Z,73.19
2023-05-02T09:04:00.550Z,72.45
2023-05-02T09:05:00.800Z,72.34
2023-05-02T09:06:00.483Z,71.23
2023-05-02T09:07:00.455Z,71.33
2023-05-02T09:08:00.455Z,71.60
2023-05-02T09:09:00.493Z,71.40
2023-05-02T09:10:00.446Z,71.00
2023-05-02T09:11:00.407Z,71.44
2023-05-02T09:12:00.447Z,71.03
2023-05-02T09:13:00.437Z,71.13
2023-05-02T09:14:00.422Z,70.89
2023-05-02T09:15:00.798Z,72.58
2023-05-02T09:16:00.393Z,72.14
2023-05-02T09:17:00.465Z,70.86
2023-05-02T09:18:00.392Z,70.32
2023-05-02T09:19:00.411Z,67.55
2023-05-02T09:20:00.363Z,63.76
2023-05-02T09:21:00.385Z,62.79
2023-05-02T09:22:00.343Z,62.22
2023-05-02T09:23:00.333Z,65.92
2023-05-02T09:24:00.383Z,60.71
2023-05-02T09:25:00.822Z,60.94
2023-05-02T09:26:00.314Z,61.55
2023-05-02T09:27:00.318Z,59.56
2023-05-02T09:28:00.294Z,60.62
2023-05-02T09:29:00.307Z,63.21
2023-05-02T09:30:00.334Z,66.24
2023-05-02T09:31:00.334Z,67.76
2023-05-02T09:32:00.295Z,70.01
2023-05-02T09:33:00.303Z,69.68
2023-05-02T09:34:00.270Z,70.92
2023-05-02T09:35:00.428Z,72.01
2023-05-02T09:36:00.260Z,73.63
2023-05-02T09:37:00.247Z,72.55
2023-05-02T09:38:00.273Z,74.99
2023-05-02T09:39:00.237Z,76.51
2023-05-02T09:40:01.202Z,75.90
2023-05-02T09:41:00.224Z,75.49
2023-05-02T09:42:00.187Z,76.82
2023-05-02T09:43:00.224Z,77.94
2023-05-02T09:44:00.173Z,76.72
2023-05-02T09:45:00.691Z,76.78
2023-05-02T09:46:00.192Z,77.33
2023-05-02T09:47:00.191Z,76.75
2023-05-02T09:48:00.264Z,77.47
2023-05-02T09:49:00.147Z,77.67
2023-05-02T09:50:00.135Z,77.97
2023-05-02T09:51:00.115Z,78.08
2023-05-02T09:52:00.138Z,78.68
2023-05-02T09:53:00.189Z,77.16
2023-05-02T09:54:00.111Z,76.95
2023-05-02T09:55:00.289Z,76.51
2023-05-02T09:56:00.127Z,75.12
2023-05-02T09:57:00.123Z,76.68
2023-05-02T09:58:00.114Z,76.75
2023-05-02T09:59:00.180Z,76.95
2023-05-02T10:00:00.050Z,76.68
2023-05-02T10:01:00.050Z,78.01
2023-05-02T10:02:00.184Z,76.96
2023-05-02T10:03:00.060Z,79.34
2023-05-02T10:04:00.055Z,80.87
2023-05-02T10:05:00.131Z,79.89
2023-05-02T10:06:00.060Z,80.50
2023-05-02T10:07:00.087Z,80.70
2023-05-02T10:08:00.022Z,81.93
2023-05-02T10:08:59.975Z,81.31
2023-05-02T10:10:00.025Z,82.43
2023-05-02T10:10:59.990Z,83.15
2023-05-02T10:11:59.937Z,82.23
2023-05-02T10:13:00.956Z,83.04
2023-05-02T10:13:59.968Z,83.25
2023-05-02T10:15:00.257Z,84.98
2023-05-02T10:15:59.974Z,85.66
2023-05-02T10:16:59.937Z,83.21
2023-05-02T10:17:59.968Z,83.48
2023-05-02T10:18:59.971Z,82.87
2023-05-02T10:20:00.072Z,82.05
2023-05-02T10:20:59.907Z,82.40
2023-05-02T10:21:59.911Z,82.46
2023-05-02T10:22:59.880Z,82.05
2023-05-02T10:23:59.916Z,83.03
2023-05-02T10:25:00.188Z,82.62
2023-05-02T10:26:00.338Z,81.40
2023-05-02T10:27:00.878Z,82.01
2023-05-02T10:27:59.839Z,82.73
2023-05-02T10:28:59.817Z,82.07
2023-05-02T10:29:59.825Z,80.38
2023-05-02T10:30:59.872Z,81.26
2023-05-02T10:31:59.874Z,81.26
2023-05-02T10:32:59.809Z,80.72
2023-05-02T10:33:59.806Z,81.43
2023-05-02T10:34:59.865Z,80.68
2023-05-02T10:35:59.817Z,79.77
2023-05-02T10:36:59.772Z,77.73
2023-05-02T10:37:59.776Z,80.24
2023-05-02T10:38:59.771Z,76.78
2023-05-02T10:39:59.751Z,78.57
2023-05-02T10:40:59.777Z,77.97
2023-05-02T10:41:59.800Z,78.23
2023-05-02T10:42:59.726Z,76.57
2023-05-02T10:43:59.730Z,77.18
2023-05-02T10:45:00.965Z,76.03
2023-05-02T10:45:59.690Z,76.20
2023-05-02T10:46:59.856Z,74.48
2023-05-02T10:47:59.782Z,75.08
2023-05-02T10:48:59.749Z,72.38
2023-05-02T10:49:59.671Z,72.58
2023-05-02T10:50:59.670Z,75.22
2023-05-02T10:51:59.698Z,72.14
2023-05-02T10:52:59.643Z,70.72
2023-05-02T10:53:59.658Z,72.28
2023-05-02T10:54:59.875Z,70.42
2023-05-02T10:55:59.674Z,69.95
2023-05-02T10:56:59.701Z,69.24
2023-05-02T10:57:59.642Z,70.25
2023-05-02T10:58:59.622Z,70.35
2023-05-02T10:59:59.595Z,70.62
2023-05-02T11:00:59.647Z,71.53
2023-05-02T11:01:59.612Z,69.31
2023-05-02T11:02:59.832Z,70.59
2023-05-02T11:03:59.644Z,67.28
2023-05-02T11:05:00.164Z,67.99
2023-05-02T11:05:59.593Z,67.21
2023-05-02T11:06:59.572Z,68.19
2023-05-02T11:07:59.630Z,69.13
2023-05-02T11:08:59.592Z,65.86
2023-05-02T11:09:59.538Z,65.25
2023-05-02T11:10:59.595Z,66.74
2023-05-02T11:11:59.525Z,65.02
2023-05-02T11:13:00.579Z,67.85
2023-05-02T11:13:59.525Z,65.56
2023-05-02T11:14:59.756Z,65.76
2023-05-02T11:15:59.553Z,67.45
2023-05-02T11:16:59.565Z,68.70
2023-05-02T11:17:59.588Z,66.50
2023-05-02T11:18:59.546Z,66.67
2023-05-02T11:19:59.506Z,66.67
2023-05-02T11:20:59.453Z,67.79
2023-05-02T11:21:59.501Z,66.70
2023-05-02T11:22:59.459Z,69.37
2023-05-02T11:23:59.495Z,68.26
2023-05-02T11:24:59.721Z,67.17
2023-05-02T11:25:59.432Z,69.40
2023-05-02T11:26:59.455Z,69.20
2023-05-02T11:27:59.440Z,68.35
2023-05-02T11:28:59.381Z,66.94
2023-05-02T11:29:59.607Z,66.43
2023-05-02T11:30:59.375Z,65.14
2023-05-02T11:31:59.581Z,66.74
2023-05-02T11:32:59.477Z,66.33
2023-05-02T11:33:59.345Z,65.92
2023-05-02T11:34:59.497Z,66.63
2023-05-02T11:35:59.366Z,68.29
2023-05-02T11:36:59.343Z,69.95
2023-05-02T11:37:59.369Z,70.86
2023-05-02T11:38:59.303Z,70.45
2023-05-02T11:39:59.305Z,71.47
2023-05-02T11:40:59.362Z,70.45
2023-05-02T11:41:59.314Z,70.18
2023-05-02T11:42:59.289Z,70.59
2023-05-02T11:43:59.282Z,71.09
2023-05-02T11:44:59.544Z,72.08
2023-05-02T11:45:59.421Z,72.72
2023-05-02T11:46:59.278Z,70.99
2023-05-02T11:47:59.278Z,71.26
2023-05-02T11:48:59.425Z,72.41
2023-05-02T11:49:59.276Z,72.04
2023-05-02T11:50:59.253Z,73.46
2023-05-02T11:51:59.257Z,72.45
2023-05-02T11:52:59.254Z,72.78
2023-05-02T11:53:59.231Z,72.92
2023-05-02T11:54:59.545Z,74.76
2023-05-02T11:55:59.205Z,74.15
2023-05-02T11:56:59.190Z,74.04
2023-05-02T11:57:59.161Z,74.45
2023-05-02T11:58:59.221Z,74.85
2023-05-02T11:59:59.157Z,74.85
2023-05-02T12:00:59.154Z,75.46
2023-05-02T12:01:59.136Z,74.96
2023-05-02T12:02:59.419Z,75.46
2023-05-02T12:03:59.209Z,74.99
2023-05-02T12:04:59.247Z,74.89
2023-05-02T12:05:59.241Z,74.04
2023-05-02T12:06:59.158Z,73.54
2023-05-02T12:07:59.107Z,74.55
2023-05-02T12:08:59.149Z,74.35
2023-05-02T12:09:59.093Z,74.58
2023-05-02T12:10:59.143Z,75.09
2023-05-02T12:11:59.085Z,76.72
2023-05-02T12:12:59.062Z,75.30
2023-05-02T12:13:59.096Z,75.09
2023-05-02T12:14:59.324Z,74.79
2023-05-02T12:15:59.077Z,74.76
2023-05-02T12:16:59.063Z,76.89
2023-05-02T12:17:59.085Z,74.85
2023-05-02T12:18:59.037Z,76.07
2023-05-02T12:19:59.030Z,76.48
2023-05-02T12:20:59.008Z,76.14
2023-05-02T12:21:58.989Z,74.52
2023-05-02T12:22:58.994Z,74.45
2023-05-02T12:23:59.025Z,74.82
2023-05-02T12:24:59.440Z,73.60
2023-05-02T12:25:59.052Z,74.21
2023-05-02T12:26:58.959Z,74.55
2023-05-02T12:27:59.043Z,73.02
2023-05-02T12:28:58.932Z,73.94
2023-05-02T12:29:58.988Z,73.06
2023-05-02T12:30:58.997Z,74.32
2023-05-02T12:31:58.969Z,72.58
2023-05-02T12:32:58.935Z,72.45
2023-05-02T12:33:58.924Z,72.21
2023-05-02T12:34:58.904Z,72.58
2023-05-02T12:35:58.932Z,74.11
2023-05-02T12:36:58.865Z,74.88
2023-05-02T12:37:58.858Z,73.97
2023-05-02T12:38:58.871Z,70.38
2023-05-02T12:39:59.173Z,71.20
2023-05-02T12:40:58.985Z,69.17
2023-05-02T12:41:58.840Z,70.52
2023-05-02T12:42:58.973Z,69.70
2023-05-02T12:44:04.177Z,70.52
2023-05-02T12:44:58.827Z,72.14
2023-05-02T12:45:58.911Z,70.89
2023-05-02T12:46:58.892Z,69.98
2023-05-02T12:47:58.839Z,70.18
2023-05-02T12:48:58.774Z,71.03
2023-05-02T12:49:59.840Z,72.14
2023-05-02T12:50:58.762Z,70.45
2023-05-02T12:51:58.784Z,70.45